sensor_id;sensor_type;location;lat;lon;timestamp;pressure;altitude;pressure_sealevel;temperature
14023;BMP180;7086;48.116;11.580;2023-02-11T00:01:48;97025.00;;;4.30
14023;BMP180;7086;48.116;11.580;2023-02-11T00:04:30;97002.00;;;4.30
14023;BMP180;7086;48.116;11.580;2023-02-11T00:07:06;97104.00;;;4.00
14023;BMP180;7086;48.116;11.580;2023-02-11T00:09:36;97145.00;;;4.30
14023;BMP180;7086;48.116;11.580;2023-02-11T00:12:05;97147.00;;;4.00
14023;BMP180;7086;48.116;11.580;2023-02-11T00:14:34;97092.00;;;4.10
14023;BMP180;7086;48.116;11.580;2023-02-11T00:17:02;97124.00;;;4.20
14023;BMP180;7086;48.116;11.580;2023-02-11T00:19:30;97122.00;;;4.20
14023;BMP180;7086;48.116;11.580;2023-02-11T00:22:03;97149.00;;;4.10
14023;BMP180;7086;48.116;11.580;2023-02-11T00:24:31;97032.00;;;4.20
14023;BMP180;7086;48.116;11.580;2023-02-11T00:27:13;97159.00;;;4.10
14023;BMP180;7086;48.116;11.580;2023-02-11T00:29:52;97127.00;;;4.10
14023;BMP180;7086;48.116;11.580;2023-02-11T00:32:41;97092.00;;;4.10
14023;BMP180;7086;48.116;11.580;2023-02-11T00:35:23;97028.00;;;3.90
14023;BMP180;7086;48.116;11.580;2023-02-11T00:46:22;97164.00;;;3.70
14023;BMP180;7086;48.116;11.580;2023-02-11T00:49:32;96910.00;;;3.80
14023;BMP180;7086;48.116;11.580;2023-02-11T00:52:36;97109.00;;;3.80
14023;BMP180;7086;48.116;11.580;2023-02-11T00:55:22;97007.00;;;3.80
14023;BMP180;7086;48.116;11.580;2023-02-11T00:57:59;97025.00;;;3.80
14023;BMP180;7086;48.116;11.580;2023-02-11T01:00:38;97096.00;;;3.60
14023;BMP180;7086;48.116;11.580;2023-02-11T01:03:12;96950.00;;;3.70
14023;BMP180;7086;48.116;11.580;2023-02-11T01:05:44;97079.00;;;3.60
14023;BMP180;7086;48.116;11.580;2023-02-11T01:08:15;97099.00;;;3.70
14023;BMP180;7086;48.116;11.580;2023-02-11T01:10:57;97017.00;;;3.70
14023;BMP180;7086;48.116;11.580;2023-02-11T01:13:45;97102.00;;;3.70
14023;BMP180;7086;48.116;11.580;2023-02-11T01:16:27;97009.00;;;3.80
14023;BMP180;7086;48.116;11.580;2023-02-11T01:18:59;96992.00;;;3.80
14023;BMP180;7086;48.116;11.580;2023-02-11T01:22:12;97088.00;;;3.80
14023;BMP180;7086;48.116;11.580;2023-02-11T01:24:55;96998.00;;;3.60
14023;BMP180;7086;48.116;11.580;2023-02-11T01:27:40;97091.00;;;3.80
14023;BMP180;7086;48.116;11.580;2023-02-11T01:30:13;97102.00;;;3.80
14023;BMP180;7086;48.116;11.580;2023-02-11T01:32:54;97113.00;;;3.80
14023;BMP180;7086;48.116;11.580;2023-02-11T01:35:42;97076.00;;;3.70
14023;BMP180;7086;48.116;11.580;2023-02-11T01:38:18;97094.00;;;3.60
14023;BMP180;7086;48.116;11.580;2023-02-11T01:40:55;96948.00;;;3.50
14023;BMP180;7086;48.116;11.580;2023-02-11T01:43:44;96965.00;;;3.70
14023;BMP180;7086;48.116;11.580;2023-02-11T01:46:41;97082.00;;;3.70
14023;BMP180;7086;48.116;11.580;2023-02-11T01:49:30;97108.00;;;3.50
14023;BMP180;7086;48.116;11.580;2023-02-11T01:52:09;96985.00;;;3.60
14023;BMP180;7086;48.116;11.580;2023-02-11T01:54:49;97108.00;;;3.60
14023;BMP180;7086;48.116;11.580;2023-02-11T01:57:38;96990.00;;;3.20
14023;BMP180;7086;48.116;11.580;2023-02-11T02:00:23;96937.00;;;3.60
14023;BMP180;7086;48.116;11.580;2023-02-11T02:03:08;97092.00;;;3.60
14023;BMP180;7086;48.116;11.580;2023-02-11T02:06:02;97098.00;;;3.60
14023;BMP180;7086;48.116;11.580;2023-02-11T02:12:48;96989.00;;;3.60
14023;BMP180;7086;48.116;11.580;2023-02-11T02:15:42;97089.00;;;3.50
14023;BMP180;7086;48.116;11.580;2023-02-11T02:18:49;96976.00;;;3.50
14023;BMP180;7086;48.116;11.580;2023-02-11T02:25:38;96942.00;;;3.40
14023;BMP180;7086;48.116;11.580;2023-02-11T02:31:49;97053.00;;;3.30
14023;BMP180;7086;48.116;11.580;2023-02-11T02:34:45;97012.00;;;3.30
14023;BMP180;7086;48.116;11.580;2023-02-11T02:37:22;97012.00;;;3.30
14023;BMP180;7086;48.116;11.580;2023-02-11T02:39:56;96974.00;;;3.20
14023;BMP180;7086;48.116;11.580;2023-02-11T02:42:26;96946.00;;;3.00
14023;BMP180;7086;48.116;11.580;2023-02-11T02:44:55;96934.00;;;3.20
14023;BMP180;7086;48.116;11.580;2023-02-11T02:47:28;97040.00;;;3.20
14023;BMP180;7086;48.116;11.580;2023-02-11T02:49:59;96912.00;;;3.20
14023;BMP180;7086;48.116;11.580;2023-02-11T02:52:35;97051.00;;;3.20
14023;BMP180;7086;48.116;11.580;2023-02-11T02:55:44;96955.00;;;3.00
14023;BMP180;7086;48.116;11.580;2023-02-11T02:59:02;96889.00;;;3.20
14023;BMP180;7086;48.116;11.580;2023-02-11T03:01:42;97035.00;;;3.10
14023;BMP180;7086;48.116;11.580;2023-02-11T03:04:23;97012.00;;;2.90
14023;BMP180;7086;48.116;11.580;2023-02-11T03:07:04;96868.00;;;3.10
14023;BMP180;7086;48.116;11.580;2023-02-11T03:09:41;96974.00;;;3.20
14023;BMP180;7086;48.116;11.580;2023-02-11T03:12:11;96889.00;;;3.20
14023;BMP180;7086;48.116;11.580;2023-02-11T03:14:41;96982.00;;;3.20
14023;BMP180;7086;48.116;11.580;2023-02-11T03:17:10;96932.00;;;3.20
14023;BMP180;7086;48.116;11.580;2023-02-11T03:19:44;96897.00;;;3.30
14023;BMP180;7086;48.116;11.580;2023-02-11T03:22:21;96893.00;;;3.30
14023;BMP180;7086;48.116;11.580;2023-02-11T03:24:57;96972.00;;;3.40
14023;BMP180;7086;48.116;11.580;2023-02-11T03:27:44;96993.00;;;3.20
14023;BMP180;7086;48.116;11.580;2023-02-11T03:30:35;96958.00;;;3.30
14023;BMP180;7086;48.116;11.580;2023-02-11T03:33:34;96863.00;;;3.30
14023;BMP180;7086;48.116;11.580;2023-02-11T03:36:16;96966.00;;;3.40
14023;BMP180;7086;48.116;11.580;2023-02-11T03:38:57;96801.00;;;3.40
14023;BMP180;7086;48.116;11.580;2023-02-11T03:41:36;96991.00;;;3.50
14023;BMP180;7086;48.116;11.580;2023-02-11T03:44:14;96862.00;;;3.50
14023;BMP180;7086;48.116;11.580;2023-02-11T03:46:53;97006.00;;;3.40
14023;BMP180;7086;48.116;11.580;2023-02-11T03:49:27;97033.00;;;3.60
14023;BMP180;7086;48.116;11.580;2023-02-11T03:52:01;97025.00;;;3.20
14023;BMP180;7086;48.116;11.580;2023-02-11T03:57:11;96887.00;;;3.10
14023;BMP180;7086;48.116;11.580;2023-02-11T03:59:52;96999.00;;;3.60
14023;BMP180;7086;48.116;11.580;2023-02-11T04:02:49;96835.00;;;3.50
14023;BMP180;7086;48.116;11.580;2023-02-11T04:06:10;96796.00;;;3.60
14023;BMP180;7086;48.116;11.580;2023-02-11T04:09:04;96844.00;;;3.50
14023;BMP180;7086;48.116;11.580;2023-02-11T04:11:34;96833.00;;;3.60
14023;BMP180;7086;48.116;11.580;2023-02-11T04:14:07;96921.00;;;3.50
14023;BMP180;7086;48.116;11.580;2023-02-11T04:16:36;96835.00;;;3.00
14023;BMP180;7086;48.116;11.580;2023-02-11T04:19:04;96909.00;;;3.40
14023;BMP180;7086;48.116;11.580;2023-02-11T04:21:45;96974.00;;;3.60
14023;BMP180;7086;48.116;11.580;2023-02-11T04:24:17;97010.00;;;3.50
14023;BMP180;7086;48.116;11.580;2023-02-11T04:26:50;96921.00;;;3.40
14023;BMP180;7086;48.116;11.580;2023-02-11T04:29:25;96870.00;;;3.40
14023;BMP180;7086;48.116;11.580;2023-02-11T04:32:00;96859.00;;;3.60
14023;BMP180;7086;48.116;11.580;2023-02-11T04:34:39;96977.00;;;3.20
14023;BMP180;7086;48.116;11.580;2023-02-11T04:37:07;96964.00;;;3.20
14023;BMP180;7086;48.116;11.580;2023-02-11T04:39:36;96977.00;;;3.60
14023;BMP180;7086;48.116;11.580;2023-02-11T04:42:07;97042.00;;;3.60
14023;BMP180;7086;48.116;11.580;2023-02-11T04:44:39;96902.00;;;3.60
14023;BMP180;7086;48.116;11.580;2023-02-11T04:47:07;97059.00;;;3.40
14023;BMP180;7086;48.116;11.580;2023-02-11T04:49:35;97051.00;;;3.40
14023;BMP180;7086;48.116;11.580;2023-02-11T04:52:03;96972.00;;;3.40
14023;BMP180;7086;48.116;11.580;2023-02-11T04:54:30;97049.00;;;3.60
14023;BMP180;7086;48.116;11.580;2023-02-11T04:56:58;97003.00;;;3.60
14023;BMP180;7086;48.116;11.580;2023-02-11T04:59:26;97046.00;;;3.60
14023;BMP180;7086;48.116;11.580;2023-02-11T05:01:56;97023.00;;;3.40
14023;BMP180;7086;48.116;11.580;2023-02-11T05:04:55;97058.00;;;3.40
14023;BMP180;7086;48.116;11.580;2023-02-11T05:21:46;96933.00;;;3.50
14023;BMP180;7086;48.116;11.580;2023-02-11T05:24:17;97063.00;;;3.20
14023;BMP180;7086;48.116;11.580;2023-02-11T05:26:48;96968.00;;;3.50
14023;BMP180;7086;48.116;11.580;2023-02-11T05:29:17;97016.00;;;3.40
14023;BMP180;7086;48.116;11.580;2023-02-11T05:31:46;97035.00;;;3.50
14023;BMP180;7086;48.116;11.580;2023-02-11T05:34:26;97035.00;;;3.50
14023;BMP180;7086;48.116;11.580;2023-02-11T05:36:56;96974.00;;;3.60
14023;BMP180;7086;48.116;11.580;2023-02-11T05:39:24;96934.00;;;3.50
14023;BMP180;7086;48.116;11.580;2023-02-11T05:41:53;97023.00;;;3.70
14023;BMP180;7086;48.116;11.580;2023-02-11T05:44:34;97030.00;;;3.80
14023;BMP180;7086;48.116;11.580;2023-02-11T05:47:03;97014.00;;;3.80
14023;BMP180;7086;48.116;11.580;2023-02-11T05:49:33;97070.00;;;3.80
14023;BMP180;7086;48.116;11.580;2023-02-11T05:52:03;96989.00;;;3.60
14023;BMP180;7086;48.116;11.580;2023-02-11T05:54:31;97029.00;;;3.90
14023;BMP180;7086;48.116;11.580;2023-02-11T05:56:58;96967.00;;;4.00
14023;BMP180;7086;48.116;11.580;2023-02-11T05:59:26;97020.00;;;3.90
14023;BMP180;7086;48.116;11.580;2023-02-11T06:01:54;97012.00;;;4.00
14023;BMP180;7086;48.116;11.580;2023-02-11T06:04:21;97025.00;;;3.60
14023;BMP180;7086;48.116;11.580;2023-02-11T06:06:50;97009.00;;;4.10
14023;BMP180;7086;48.116;11.580;2023-02-11T06:09:21;96939.00;;;4.10
14023;BMP180;7086;48.116;11.580;2023-02-11T06:11:49;97029.00;;;4.10
14023;BMP180;7086;48.116;11.580;2023-02-11T06:14:18;97011.00;;;4.20
14023;BMP180;7086;48.116;11.580;2023-02-11T06:16:49;97010.00;;;4.20
14023;BMP180;7086;48.116;11.580;2023-02-11T06:19:16;96983.00;;;3.90
14023;BMP180;7086;48.116;11.580;2023-02-11T06:21:44;97012.00;;;4.20
14023;BMP180;7086;48.116;11.580;2023-02-11T06:24:23;97026.00;;;3.90
14023;BMP180;7086;48.116;11.580;2023-02-11T06:27:05;97006.00;;;4.30
14023;BMP180;7086;48.116;11.580;2023-02-11T06:29:48;96915.00;;;4.40
14023;BMP180;7086;48.116;11.580;2023-02-11T06:35:06;96876.00;;;4.50
14023;BMP180;7086;48.116;11.580;2023-02-11T06:37:48;96892.00;;;4.40
14023;BMP180;7086;48.116;11.580;2023-02-11T06:41:02;97013.00;;;4.60
14023;BMP180;7086;48.116;11.580;2023-02-11T06:43:44;97024.00;;;4.60
14023;BMP180;7086;48.116;11.580;2023-02-11T06:46:26;96910.00;;;4.70
14023;BMP180;7086;48.116;11.580;2023-02-11T06:49:09;97008.00;;;4.70
14023;BMP180;7086;48.116;11.580;2023-02-11T06:51:46;96904.00;;;4.70
14023;BMP180;7086;48.116;11.580;2023-02-11T06:54:28;97006.00;;;4.70
14023;BMP180;7086;48.116;11.580;2023-02-11T06:57:23;96862.00;;;4.90
14023;BMP180;7086;48.116;11.580;2023-02-11T07:00:07;96903.00;;;4.80
14023;BMP180;7086;48.116;11.580;2023-02-11T07:02:49;96907.00;;;5.00
14023;BMP180;7086;48.116;11.580;2023-02-11T07:05:30;97021.00;;;5.10
14023;BMP180;7086;48.116;11.580;2023-02-11T07:08:11;97035.00;;;5.10
14023;BMP180;7086;48.116;11.580;2023-02-11T07:10:39;97033.00;;;4.70
14023;BMP180;7086;48.116;11.580;2023-02-11T07:13:10;96997.00;;;5.10
14023;BMP180;7086;48.116;11.580;2023-02-11T07:15:41;97055.00;;;5.30
14023;BMP180;7086;48.116;11.580;2023-02-11T07:18:08;97027.00;;;5.40
14023;BMP180;7086;48.116;11.580;2023-02-11T07:20:37;97028.00;;;5.40
14023;BMP180;7086;48.116;11.580;2023-02-11T07:23:08;96989.00;;;5.40
14023;BMP180;7086;48.116;11.580;2023-02-11T07:25:38;97006.00;;;5.50
14023;BMP180;7086;48.116;11.580;2023-02-11T07:28:27;96904.00;;;5.60
14023;BMP180;7086;48.116;11.580;2023-02-11T07:30:58;96913.00;;;5.60
14023;BMP180;7086;48.116;11.580;2023-02-11T07:33:31;96858.00;;;5.70
14023;BMP180;7086;48.116;11.580;2023-02-11T07:36:06;96975.00;;;5.60
14023;BMP180;7086;48.116;11.580;2023-02-11T07:38:44;97001.00;;;5.70
14023;BMP180;7086;48.116;11.580;2023-02-11T07:41:31;97034.00;;;5.80
14023;BMP180;7086;48.116;11.580;2023-02-11T07:44:05;97005.00;;;5.80
14023;BMP180;7086;48.116;11.580;2023-02-11T07:46:38;97051.00;;;5.60
14023;BMP180;7086;48.116;11.580;2023-02-11T07:49:10;96889.00;;;5.80
14023;BMP180;7086;48.116;11.580;2023-02-11T07:51:42;97013.00;;;5.40
14023;BMP180;7086;48.116;11.580;2023-02-11T07:54:11;96956.00;;;5.60
14023;BMP180;7086;48.116;11.580;2023-02-11T07:56:42;96945.00;;;6.10
14023;BMP180;7086;48.116;11.580;2023-02-11T07:59:17;97050.00;;;6.10
14023;BMP180;7086;48.116;11.580;2023-02-11T08:02:01;96965.00;;;6.20
14023;BMP180;7086;48.116;11.580;2023-02-11T08:04:45;97026.00;;;6.10
14023;BMP180;7086;48.116;11.580;2023-02-11T08:07:16;97009.00;;;5.80
14023;BMP180;7086;48.116;11.580;2023-02-11T08:09:49;96923.00;;;6.40
14023;BMP180;7086;48.116;11.580;2023-02-11T08:15:10;96869.00;;;6.10
14023;BMP180;7086;48.116;11.580;2023-02-11T08:17:47;97007.00;;;6.70
14023;BMP180;7086;48.116;11.580;2023-02-11T08:21:24;96970.00;;;6.80
14023;BMP180;7086;48.116;11.580;2023-02-11T08:24:17;96871.00;;;6.90
14023;BMP180;7086;48.116;11.580;2023-02-11T08:26:59;96973.00;;;7.00
14023;BMP180;7086;48.116;11.580;2023-02-11T08:29:32;96888.00;;;7.20
14023;BMP180;7086;48.116;11.580;2023-02-11T08:39:18;96957.00;;;7.80
14023;BMP180;7086;48.116;11.580;2023-02-11T08:42:11;96863.00;;;7.90
14023;BMP180;7086;48.116;11.580;2023-02-11T08:45:05;97001.00;;;7.90
14023;BMP180;7086;48.116;11.580;2023-02-11T08:47:51;97019.00;;;8.10
14023;BMP180;7086;48.116;11.580;2023-02-11T08:50:39;97006.00;;;8.20
14023;BMP180;7086;48.116;11.580;2023-02-11T08:53:21;96908.00;;;8.30
14023;BMP180;7086;48.116;11.580;2023-02-11T09:13:45;96978.00;;;8.90
14023;BMP180;7086;48.116;11.580;2023-02-11T09:16:35;97022.00;;;8.90
14023;BMP180;7086;48.116;11.580;2023-02-11T09:21:52;96933.00;;;8.40
14023;BMP180;7086;48.116;11.580;2023-02-11T09:24:59;96888.00;;;8.80
14023;BMP180;7086;48.116;11.580;2023-02-11T11:00:59;96944.00;;;13.50
14023;BMP180;7086;48.116;11.580;2023-02-11T11:03:49;96952.00;;;13.80
14023;BMP180;7086;48.116;11.580;2023-02-11T11:06:32;96944.00;;;14.40
14023;BMP180;7086;48.116;11.580;2023-02-11T11:09:03;96886.00;;;14.70
14023;BMP180;7086;48.116;11.580;2023-02-11T11:11:52;96890.00;;;14.90
14023;BMP180;7086;48.116;11.580;2023-02-11T11:14:36;96926.00;;;15.00
14023;BMP180;7086;48.116;11.580;2023-02-11T11:21:00;96902.00;;;14.90
14023;BMP180;7086;48.116;11.580;2023-02-11T11:23:56;96916.00;;;14.80
14023;BMP180;7086;48.116;11.580;2023-02-11T11:26:58;96874.00;;;14.80
14023;BMP180;7086;48.116;11.580;2023-02-11T11:29:47;96848.00;;;14.90
14023;BMP180;7086;48.116;11.580;2023-02-11T11:32:33;96826.00;;;14.80
14023;BMP180;7086;48.116;11.580;2023-02-11T12:23:20;96778.00;;;15.40
14023;BMP180;7086;48.116;11.580;2023-02-11T12:27:21;96822.00;;;15.40
14023;BMP180;7086;48.116;11.580;2023-02-11T12:30:07;96917.00;;;15.20
14023;BMP180;7086;48.116;11.580;2023-02-11T12:32:54;96848.00;;;15.20
14023;BMP180;7086;48.116;11.580;2023-02-11T12:35:54;96765.00;;;15.00
14023;BMP180;7086;48.116;11.580;2023-02-11T12:38:52;96893.00;;;15.00
14023;BMP180;7086;48.116;11.580;2023-02-11T12:42:31;96836.00;;;14.90
14023;BMP180;7086;48.116;11.580;2023-02-11T12:46:03;96862.00;;;14.90
14023;BMP180;7086;48.116;11.580;2023-02-11T12:49:18;96890.00;;;14.50
14023;BMP180;7086;48.116;11.580;2023-02-11T12:52:32;96800.00;;;14.60
14023;BMP180;7086;48.116;11.580;2023-02-11T12:55:56;96878.00;;;14.70
14023;BMP180;7086;48.116;11.580;2023-02-11T13:01:34;96889.00;;;14.70
14023;BMP180;7086;48.116;11.580;2023-02-11T13:04:38;96833.00;;;14.60
14023;BMP180;7086;48.116;11.580;2023-02-11T13:29:19;96766.00;;;14.10
14023;BMP180;7086;48.116;11.580;2023-02-11T13:32:11;96858.00;;;13.70
14023;BMP180;7086;48.116;11.580;2023-02-11T13:35:01;96800.00;;;13.90
14023;BMP180;7086;48.116;11.580;2023-02-11T13:37:57;96845.00;;;13.80
14023;BMP180;7086;48.116;11.580;2023-02-11T13:41:33;96714.00;;;13.80
14023;BMP180;7086;48.116;11.580;2023-02-11T14:09:40;96782.00;;;14.20
14023;BMP180;7086;48.116;11.580;2023-02-11T14:12:38;96753.00;;;14.20
14023;BMP180;7086;48.116;11.580;2023-02-11T14:16:04;96713.00;;;13.80
14023;BMP180;7086;48.116;11.580;2023-02-11T14:56:01;96847.00;;;13.40
14023;BMP180;7086;48.116;11.580;2023-02-11T14:58:56;96692.00;;;13.70
14023;BMP180;7086;48.116;11.580;2023-02-11T15:01:50;96723.00;;;13.60
14023;BMP180;7086;48.116;11.580;2023-02-11T15:04:51;96838.00;;;13.50
14023;BMP180;7086;48.116;11.580;2023-02-11T15:08:02;96829.00;;;13.40
14023;BMP180;7086;48.116;11.580;2023-02-11T15:44:24;96846.00;;;12.90
14023;BMP180;7086;48.116;11.580;2023-02-11T15:51:16;96883.00;;;12.70
14023;BMP180;7086;48.116;11.580;2023-02-11T15:54:07;96886.00;;;12.50
14023;BMP180;7086;48.116;11.580;2023-02-11T15:57:06;96790.00;;;12.50
14023;BMP180;7086;48.116;11.580;2023-02-11T16:00:47;96848.00;;;12.40
14023;BMP180;7086;48.116;11.580;2023-02-11T16:10:02;96867.00;;;12.20
14023;BMP180;7086;48.116;11.580;2023-02-11T16:14:01;96764.00;;;12.20
14023;BMP180;7086;48.116;11.580;2023-02-11T16:25:57;96909.00;;;11.90
14023;BMP180;7086;48.116;11.580;2023-02-11T16:28:40;96933.00;;;11.90
14023;BMP180;7086;48.116;11.580;2023-02-11T16:31:21;96867.00;;;11.90
14023;BMP180;7086;48.116;11.580;2023-02-11T16:34:49;96955.00;;;11.80
14023;BMP180;7086;48.116;11.580;2023-02-11T16:38:13;96930.00;;;11.80
14023;BMP180;7086;48.116;11.580;2023-02-11T16:41:13;96819.00;;;11.80
14023;BMP180;7086;48.116;11.580;2023-02-11T16:44:36;96817.00;;;11.80
14023;BMP180;7086;48.116;11.580;2023-02-11T16:47:44;96859.00;;;11.60
14023;BMP180;7086;48.116;11.580;2023-02-11T16:50:30;96848.00;;;11.80
14023;BMP180;7086;48.116;11.580;2023-02-11T16:53:08;96921.00;;;11.60
14023;BMP180;7086;48.116;11.580;2023-02-11T16:56:03;96930.00;;;11.70
14023;BMP180;7086;48.116;11.580;2023-02-11T16:58:54;96932.00;;;11.30
14023;BMP180;7086;48.116;11.580;2023-02-11T17:01:36;96929.00;;;11.70
14023;BMP180;7086;48.116;11.580;2023-02-11T17:04:25;96934.00;;;11.60
14023;BMP180;7086;48.116;11.580;2023-02-11T17:07:02;96937.00;;;11.60
14023;BMP180;7086;48.116;11.580;2023-02-11T17:09:58;96847.00;;;11.60
14023;BMP180;7086;48.116;11.580;2023-02-11T17:13:16;96877.00;;;11.50
14023;BMP180;7086;48.116;11.580;2023-02-11T17:20:19;96976.00;;;11.30
14023;BMP180;7086;48.116;11.580;2023-02-11T17:23:12;96968.00;;;11.30
14023;BMP180;7086;48.116;11.580;2023-02-11T17:26:39;96985.00;;;11.30
14023;BMP180;7086;48.116;11.580;2023-02-11T17:29:41;96975.00;;;11.30
14023;BMP180;7086;48.116;11.580;2023-02-11T17:32:32;96965.00;;;11.20
14023;BMP180;7086;48.116;11.580;2023-02-11T17:39:19;96978.00;;;11.20
14023;BMP180;7086;48.116;11.580;2023-02-11T17:42:52;97003.00;;;11.20
14023;BMP180;7086;48.116;11.580;2023-02-11T17:45:24;97002.00;;;11.20
14023;BMP180;7086;48.116;11.580;2023-02-11T17:48:30;96851.00;;;11.20
14023;BMP180;7086;48.116;11.580;2023-02-11T17:51:42;96958.00;;;11.00
14023;BMP180;7086;48.116;11.580;2023-02-11T18:11:52;97024.00;;;11.10
14023;BMP180;7086;48.116;11.580;2023-02-11T18:14:46;97013.00;;;11.10
14023;BMP180;7086;48.116;11.580;2023-02-11T18:17:34;96914.00;;;10.90
14023;BMP180;7086;48.116;11.580;2023-02-11T18:20:28;96936.00;;;11.00
14023;BMP180;7086;48.116;11.580;2023-02-11T18:22:58;97016.00;;;11.10
14023;BMP180;7086;48.116;11.580;2023-02-11T20:41:57;96918.00;;;9.60
14023;BMP180;7086;48.116;11.580;2023-02-11T20:45:01;97050.00;;;9.80
14023;BMP180;7086;48.116;11.580;2023-02-11T20:52:26;96912.00;;;9.70
14023;BMP180;7086;48.116;11.580;2023-02-11T21:18:56;97063.00;;;9.60
14023;BMP180;7086;48.116;11.580;2023-02-11T21:21:56;96923.00;;;9.90
14023;BMP180;7086;48.116;11.580;2023-02-11T21:24:33;97059.00;;;10.00
14023;BMP180;7086;48.116;11.580;2023-02-11T21:27:01;97013.00;;;10.00
14023;BMP180;7086;48.116;11.580;2023-02-11T21:29:53;96963.00;;;10.00
14023;BMP180;7086;48.116;11.580;2023-02-11T21:32:35;96992.00;;;10.00
14023;BMP180;7086;48.116;11.580;2023-02-11T21:35:42;96890.00;;;9.60
14023;BMP180;7086;48.116;11.580;2023-02-11T21:38:25;97049.00;;;10.00
14023;BMP180;7086;48.116;11.580;2023-02-11T21:40:54;97048.00;;;10.00
14023;BMP180;7086;48.116;11.580;2023-02-11T21:43:26;97052.00;;;9.90
14023;BMP180;7086;48.116;11.580;2023-02-11T21:46:47;96987.00;;;9.50
14023;BMP180;7086;48.116;11.580;2023-02-11T21:49:24;97068.00;;;9.80
14023;BMP180;7086;48.116;11.580;2023-02-11T21:52:21;97052.00;;;9.90
14023;BMP180;7086;48.116;11.580;2023-02-11T22:01:39;97039.00;;;9.90
14023;BMP180;7086;48.116;11.580;2023-02-11T22:05:04;97035.00;;;9.80
14023;BMP180;7086;48.116;11.580;2023-02-11T22:08:38;97057.00;;;9.70
14023;BMP180;7086;48.116;11.580;2023-02-11T22:11:44;96892.00;;;9.80
14023;BMP180;7086;48.116;11.580;2023-02-11T22:14:37;96934.00;;;9.40
14023;BMP180;7086;48.116;11.580;2023-02-11T22:17:59;97017.00;;;9.80
14023;BMP180;7086;48.116;11.580;2023-02-11T22:20:43;97042.00;;;9.80
14023;BMP180;7086;48.116;11.580;2023-02-11T22:53:37;96957.00;;;9.80
14023;BMP180;7086;48.116;11.580;2023-02-11T22:56:17;97006.00;;;9.80
14023;BMP180;7086;48.116;11.580;2023-02-11T22:59:04;97018.00;;;9.50
14023;BMP180;7086;48.116;11.580;2023-02-11T23:01:48;96961.00;;;9.70
14023;BMP180;7086;48.116;11.580;2023-02-11T23:04:28;97005.00;;;9.80
14023;BMP180;7086;48.116;11.580;2023-02-11T23:18:29;97088.00;;;9.70
14023;BMP180;7086;48.116;11.580;2023-02-11T23:22:16;96955.00;;;9.70
14023;BMP180;7086;48.116;11.580;2023-02-11T23:25:39;97012.00;;;9.70
14023;BMP180;7086;48.116;11.580;2023-02-11T23:28:53;97009.00;;;9.70
14023;BMP180;7086;48.116;11.580;2023-02-11T23:32:15;96923.00;;;9.50
14023;BMP180;7086;48.116;11.580;2023-02-11T23:35:47;96993.00;;;9.80
14023;BMP180;7086;48.116;11.580;2023-02-11T23:42:22;97116.00;;;9.50
14023;BMP180;7086;48.116;11.580;2023-02-11T23:45:24;97063.00;;;9.70
14023;BMP180;7086;48.116;11.580;2023-02-11T23:48:22;97103.00;;;9.90
14023;BMP180;7086;48.116;11.580;2023-02-11T23:51:06;97003.00;;;10.00
14023;BMP180;7086;48.116;11.580;2023-02-11T23:53:37;97100.00;;;10.10
14023;BMP180;7086;48.116;11.580;2023-02-11T23:56:12;97077.00;;;10.00
14023;BMP180;7086;48.116;11.580;2023-02-11T23:58:40;96982.00;;;10.10
